Terminal Aerodrome Forecast
Issued by NWS Milwaukee/Sullivan, WI

Home | Current Version | Previous Version | Text Only | Print | Product List | Glossary On
Versions: 1 2 3 4 5 6 7 8 9 10 11 12 13 14 15 16 17 18 19
000
FTUS43 KMKX 280520
TAFMSN
TAF
KMSN 280520Z 2806/2906 18006KT P6SM BKN250
     FM281000 17008KT P6SM BKN100 WS020/20035KT
     FM281200 18010G20KT P6SM VCTS OVC040CB WS020/20040KT
     FM281400 18014G22KT P6SM -SHRA VCTS OVC040CB
     FM281600 18016G27KT 6SM -SHRA VCTS BKN015 OVC040CB
     FM281800 18017G28KT 4SM SHRA VCTS BKN020 OVC040CB
     FM290000 20013G22KT P6SM SHRA VCTS OVC045CB=

USA.gov is the U.S. government's official web portal to all federal, state and local government web resources and services.